createdAt,value
2018-09-06T00:01:36.763Z,15.90
2018-09-06T00:04:05.017Z,17.67
2018-09-06T00:06:33.243Z,17.23
2018-09-06T00:09:01.508Z,17.47
2018-09-06T00:11:29.733Z,16.20
2018-09-06T00:13:57.965Z,16.77
2018-09-06T00:16:26.207Z,18.40
2018-09-06T00:18:54.471Z,16.27
2018-09-06T00:21:22.689Z,16.60
2018-09-06T00:23:50.944Z,15.63
2018-09-06T00:26:19.178Z,16.93
2018-09-06T00:28:47.917Z,17.27
2018-09-06T00:31:16.150Z,16.17
2018-09-06T00:33:44.370Z,17.80
2018-09-06T00:36:12.656Z,16.13
2018-09-06T00:38:40.881Z,17.13
2018-09-06T00:41:09.120Z,18.73
2018-09-06T00:43:38.179Z,16.23
2018-09-06T00:46:06.804Z,17.63
2018-09-06T00:48:35.339Z,15.93
2018-09-06T00:51:03.580Z,16.83
2018-09-06T00:53:31.825Z,17.23
2018-09-06T00:56:00.050Z,17.03
2018-09-06T00:58:28.297Z,17.83
2018-09-06T01:00:56.542Z,16.70
2018-09-06T01:03:24.779Z,18.53
2018-09-06T01:05:53.003Z,18.47
2018-09-06T01:08:21.238Z,17.27
2018-09-06T01:10:49.464Z,16.93
2018-09-06T01:13:17.673Z,17.90
2018-09-06T01:15:45.937Z,17.30
2018-09-06T01:18:14.174Z,17.00
2018-09-06T01:20:42.395Z,17.73
2018-09-06T01:23:10.635Z,18.47
2018-09-06T01:25:44.129Z,18.90
2018-09-06T01:28:12.699Z,16.30
2018-09-06T01:30:40.935Z,17.87
2018-09-06T01:33:09.179Z,17.47
2018-09-06T01:35:42.454Z,17.93
2018-09-06T01:38:10.767Z,17.27
2018-09-06T01:40:39.008Z,17.87
2018-09-06T01:43:07.241Z,17.93
2018-09-06T01:45:35.459Z,19.60
2018-09-06T01:48:03.732Z,19.50
2018-09-06T01:50:31.953Z,17.50
2018-09-06T01:53:00.176Z,18.97
2018-09-06T01:55:28.391Z,18.07
2018-09-06T01:57:56.631Z,21.27
2018-09-06T02:00:25.518Z,24.07
2018-09-06T02:02:53.742Z,18.40
2018-09-06T02:05:27.303Z,18.47
2018-09-06T02:07:55.567Z,22.07
2018-09-06T02:10:23.808Z,19.47
2018-09-06T02:12:52.030Z,19.87
2018-09-06T02:15:20.256Z,19.10
2018-09-06T02:17:48.475Z,20.00
2018-09-06T02:20:17.262Z,18.70
2018-09-06T02:22:46.017Z,20.80
2018-09-06T02:25:14.258Z,19.20
2018-09-06T02:27:42.512Z,20.03
2018-09-06T02:30:10.740Z,21.00
2018-09-06T02:32:38.978Z,20.70
2018-09-06T02:35:07.308Z,20.33
2018-09-06T02:37:35.535Z,21.93
2018-09-06T02:40:03.811Z,21.10
2018-09-06T02:42:32.469Z,22.30
2018-09-06T02:45:00.702Z,22.60
2018-09-06T02:47:29.114Z,23.63
2018-09-06T02:50:02.767Z,23.57
2018-09-06T02:52:30.992Z,23.33
2018-09-06T02:54:59.236Z,23.33
2018-09-06T02:57:27.455Z,25.73
2018-09-06T02:59:55.707Z,27.20
2018-09-06T03:02:23.926Z,27.83
2018-09-06T03:04:52.165Z,26.20
2018-09-06T03:07:20.379Z,29.70
2018-09-06T03:09:48.644Z,25.93
2018-09-06T03:12:16.882Z,28.23
2018-09-06T03:14:45.127Z,30.27
2018-09-06T03:17:13.356Z,33.40
2018-09-06T03:19:41.589Z,26.13
2018-09-06T03:22:09.832Z,29.67
2018-09-06T03:24:38.058Z,30.83
2018-09-06T03:27:06.279Z,29.53
2018-09-06T03:29:34.526Z,29.10
2018-09-06T03:32:02.749Z,29.23
2018-09-06T03:34:30.976Z,31.23
2018-09-06T03:36:59.192Z,32.27
2018-09-06T03:39:27.411Z,28.53
2018-09-06T03:41:55.636Z,29.37
2018-09-06T03:44:23.888Z,28.80
2018-09-06T03:46:52.115Z,27.50
2018-09-06T03:49:20.366Z,24.87
2018-09-06T03:51:48.600Z,30.53
2018-09-06T03:54:16.857Z,24.80
2018-09-06T03:56:45.073Z,29.43
2018-09-06T03:59:13.318Z,26.23
2018-09-06T04:01:41.539Z,23.00
2018-09-06T04:04:09.904Z,27.20
2018-09-06T04:06:38.128Z,23.47
2018-09-06T04:09:08.295Z,24.87
2018-09-06T04:11:36.528Z,24.03
2018-09-06T04:14:04.769Z,22.80
2018-09-06T04:16:33.448Z,25.17
2018-09-06T04:19:01.731Z,24.83
2018-09-06T04:21:29.963Z,24.83
2018-09-06T04:23:58.188Z,25.27
2018-09-06T04:26:26.423Z,23.37
2018-09-06T04:28:54.660Z,24.53
2018-09-06T04:31:22.911Z,22.83
2018-09-06T04:33:51.260Z,21.30
2018-09-06T04:36:19.636Z,25.00
2018-09-06T04:38:47.785Z,23.93
2018-09-06T04:41:16.059Z,22.83
2018-09-06T04:43:44.590Z,27.33
2018-09-06T04:46:12.800Z,22.67
2018-09-06T04:48:41.024Z,25.23
2018-09-06T04:51:09.496Z,29.70
2018-09-06T04:53:37.727Z,23.60
2018-09-06T04:56:06.010Z,23.70
2018-09-06T04:58:34.286Z,26.10
2018-09-06T05:01:02.543Z,226.83
2018-09-06T05:03:30.786Z,30.93
2018-09-06T05:05:59.025Z,135.80
2018-09-06T05:08:27.252Z,25.87
2018-09-06T05:10:55.474Z,38.27
2018-09-06T05:15:58.268Z,24.40
2018-09-06T05:18:26.502Z,27.60
2018-09-06T05:20:54.751Z,25.87
2018-09-06T05:23:22.978Z,22.97
2018-09-06T05:25:52.223Z,23.93
2018-09-06T05:28:20.439Z,21.57
2018-09-06T05:30:48.755Z,22.03
2018-09-06T05:33:16.905Z,25.20
2018-09-06T05:35:45.131Z,24.50
2018-09-06T05:38:13.344Z,24.13
2018-09-06T05:40:41.576Z,24.70
2018-09-06T05:43:09.792Z,22.90
2018-09-06T05:45:38.069Z,23.50
2018-09-06T05:48:07.125Z,25.77
2018-09-06T05:50:35.355Z,24.27
2018-09-06T05:53:03.635Z,24.33
2018-09-06T05:55:32.140Z,23.17
2018-09-06T05:58:00.409Z,24.30
2018-09-06T06:00:34.035Z,22.63
2018-09-06T06:03:04.152Z,23.07
2018-09-06T06:05:32.423Z,23.90
2018-09-06T06:08:11.916Z,22.13
2018-09-06T06:10:40.153Z,21.90
2018-09-06T06:13:08.369Z,23.27
2018-09-06T06:15:36.716Z,22.80
2018-09-06T06:18:05.044Z,20.87
2018-09-06T06:20:33.276Z,23.03
2018-09-06T06:23:01.516Z,23.10
2018-09-06T06:25:29.732Z,23.67
2018-09-06T06:27:57.964Z,21.67
2018-09-06T06:30:26.365Z,22.60
2018-09-06T06:32:54.614Z,22.13
2018-09-06T06:35:23.225Z,21.12
2018-09-06T06:37:51.430Z,22.07
2018-09-06T06:40:19.652Z,24.50
2018-09-06T06:42:47.874Z,21.27
2018-09-06T06:45:16.090Z,23.80
2018-09-06T06:47:44.488Z,21.20
2018-09-06T06:50:12.734Z,23.38
2018-09-06T06:52:41.062Z,22.30
2018-09-06T06:55:09.346Z,24.02
2018-09-06T06:57:37.585Z,24.90
2018-09-06T07:00:05.937Z,26.30
2018-09-06T07:02:34.173Z,25.95
2018-09-06T07:05:02.414Z,26.05
2018-09-06T07:07:30.652Z,26.55
2018-09-06T07:09:58.887Z,26.05
2018-09-06T07:12:27.124Z,25.48
2018-09-06T07:14:55.356Z,25.10
2018-09-06T07:17:23.591Z,25.48
2018-09-06T07:19:52.021Z,25.35
2018-09-06T07:22:20.253Z,26.20
2018-09-06T07:24:48.475Z,25.48
2018-09-06T07:27:17.437Z,28.30
2018-09-06T07:29:45.656Z,24.98
2018-09-06T07:32:14.046Z,27.80
2018-09-06T07:34:42.280Z,25.20
2018-09-06T07:37:10.505Z,26.02
2018-09-06T07:39:38.742Z,24.10
2018-09-06T07:42:07.279Z,25.85
2018-09-06T07:44:35.499Z,22.27
2018-09-06T07:47:03.784Z,23.83
2018-09-06T07:49:32.011Z,25.80
2018-09-06T07:52:00.319Z,22.70
2018-09-06T07:54:28.540Z,22.87
2018-09-06T07:56:56.754Z,21.85
2018-09-06T07:59:25.459Z,22.15
2018-09-06T08:01:53.687Z,20.08
2018-09-06T08:04:21.907Z,20.85
2018-09-06T08:06:50.140Z,18.67
2018-09-06T08:09:18.356Z,20.88
2018-09-06T08:11:46.598Z,20.82
2018-09-06T08:14:14.819Z,20.02
2018-09-06T08:16:43.063Z,20.02
2018-09-06T08:19:11.315Z,20.00
2018-09-06T08:21:39.538Z,25.55
2018-09-06T08:24:08.004Z,23.40
2018-09-06T08:26:36.246Z,22.75
2018-09-06T08:29:04.571Z,22.77
2018-09-06T08:31:32.891Z,22.87
2018-09-06T08:34:01.126Z,26.37
2018-09-06T08:36:29.370Z,26.30
2018-09-06T08:38:57.616Z,25.27
2018-09-06T08:41:25.828Z,23.85
2018-09-06T08:43:54.050Z,33.90
2018-09-06T08:46:22.279Z,25.50
2018-09-06T08:48:50.969Z,36.83
2018-09-06T08:51:19.220Z,26.87
2018-09-06T08:53:47.458Z,26.97
2018-09-06T08:56:15.670Z,26.52
2018-09-06T08:58:43.904Z,28.27
2018-09-06T09:01:43.383Z,28.15
2018-09-06T09:04:11.643Z,28.17
2018-09-06T09:06:40.162Z,31.48
2018-09-06T09:09:10.118Z,40.67
2018-09-06T09:11:38.338Z,40.08
2018-09-06T09:14:06.668Z,29.12
2018-09-06T09:16:35.119Z,33.48
2018-09-06T09:19:03.652Z,26.12
2018-09-06T09:21:31.907Z,29.30
2018-09-06T09:24:00.212Z,33.18
2018-09-06T09:26:28.441Z,31.12
2018-09-06T09:28:56.681Z,29.45
2018-09-06T09:31:24.906Z,31.62
2018-09-06T09:33:53.161Z,29.50
2018-09-06T09:36:21.401Z,34.00
2018-09-06T09:38:49.653Z,31.97
2018-09-06T09:41:17.906Z,37.48
2018-09-06T09:43:46.144Z,36.55
2018-09-06T09:48:41.893Z,40.55
2018-09-06T09:51:10.111Z,47.73
2018-09-06T09:53:38.358Z,43.48
2018-09-06T09:56:06.696Z,49.33
2018-09-06T09:58:36.002Z,51.42
2018-09-06T10:01:04.250Z,32.15
2018-09-06T10:03:38.934Z,49.90
2018-09-06T10:06:12.634Z,37.48
2018-09-06T10:08:46.208Z,29.30
2018-09-06T10:11:15.203Z,97.30
2018-09-06T10:13:43.571Z,71.97
2018-09-06T10:16:11.824Z,69.07
2018-09-06T10:18:40.262Z,93.15
2018-09-06T10:21:09.784Z,96.12
2018-09-06T10:23:38.037Z,108.87
2018-09-06T10:26:06.303Z,54.73
2018-09-06T10:28:34.618Z,40.83
2018-09-06T10:31:03.175Z,38.70
2018-09-06T10:33:31.615Z,47.20
2018-09-06T10:35:59.908Z,101.10
2018-09-06T10:38:28.342Z,92.53
2018-09-06T10:40:56.561Z,42.73
2018-09-06T10:43:24.888Z,44.30
2018-09-06T10:45:53.102Z,51.90
2018-09-06T10:48:21.367Z,42.15
2018-09-06T10:50:49.595Z,36.85
2018-09-06T10:53:17.819Z,37.63
2018-09-06T10:55:46.058Z,34.98
2018-09-06T10:58:14.288Z,33.75
2018-09-06T11:00:43.554Z,38.63
2018-09-06T11:03:11.770Z,38.55
2018-09-06T11:05:40.136Z,36.30
2018-09-06T11:08:08.503Z,31.10
2018-09-06T11:10:36.643Z,35.98
2018-09-06T11:13:04.872Z,32.08
2018-09-06T11:15:33.581Z,37.13
2018-09-06T11:18:01.865Z,37.90
2018-09-06T11:20:30.039Z,35.40
2018-09-06T11:22:58.261Z,43.15
2018-09-06T11:25:26.504Z,36.08
2018-09-06T11:27:55.540Z,39.75
2018-09-06T11:30:23.749Z,37.93
2018-09-06T11:32:51.980Z,31.68
2018-09-06T11:35:20.219Z,66.95
2018-09-06T11:37:48.442Z,37.85
2018-09-06T11:40:16.744Z,34.25
2018-09-06T11:42:44.951Z,39.33
2018-09-06T11:45:13.272Z,39.20
2018-09-06T11:47:41.578Z,31.23
2018-09-06T11:50:09.727Z,33.90
2018-09-06T11:52:37.947Z,38.53
2018-09-06T11:55:06.612Z,31.17
2018-09-06T11:57:34.827Z,27.73
2018-09-06T12:00:03.108Z,28.15
2018-09-06T12:02:31.340Z,27.98
2018-09-06T12:04:59.579Z,27.02
2018-09-06T12:07:27.832Z,27.55
2018-09-06T12:09:56.068Z,30.72
2018-09-06T12:12:25.147Z,30.08
2018-09-06T12:14:53.406Z,27.48
2018-09-06T12:17:21.639Z,26.35
2018-09-06T12:19:49.878Z,25.15
2018-09-06T12:22:18.764Z,26.02
2018-09-06T12:24:47.032Z,24.43
2018-09-06T12:27:15.273Z,23.45
2018-09-06T12:29:44.080Z,23.42
2018-09-06T12:32:12.307Z,23.50
2018-09-06T12:34:40.550Z,28.25
2018-09-06T12:37:13.835Z,22.35
2018-09-06T12:39:43.463Z,19.37
2018-09-06T12:42:11.926Z,19.05
2018-09-06T12:44:40.411Z,20.40
2018-09-06T12:47:08.664Z,18.32
2018-09-06T12:49:36.907Z,17.07
2018-09-06T12:52:05.163Z,16.70
2018-09-06T12:54:33.419Z,17.37
2018-09-06T12:57:01.648Z,16.57
2018-09-06T12:59:29.898Z,18.23
2018-09-06T13:01:58.138Z,17.32
2018-09-06T13:04:26.382Z,16.80
2018-09-06T13:06:54.643Z,16.32
2018-09-06T13:09:22.885Z,17.25
2018-09-06T13:11:51.106Z,16.05
2018-09-06T13:14:19.326Z,16.35
2018-09-06T13:16:47.562Z,15.63
2018-09-06T13:19:15.787Z,17.55
2018-09-06T13:21:44.024Z,17.37
2018-09-06T13:24:12.256Z,18.10
2018-09-06T13:26:40.508Z,17.02
2018-09-06T13:29:08.731Z,16.07
2018-09-06T13:31:36.969Z,16.80
2018-09-06T13:34:05.186Z,15.03
2018-09-06T13:36:33.411Z,13.45
2018-09-06T13:39:01.704Z,15.10
2018-09-06T13:41:30.455Z,17.25
2018-09-06T13:43:58.683Z,17.45
2018-09-06T13:46:27.035Z,16.35
2018-09-06T13:48:55.282Z,16.10
2018-09-06T13:51:23.536Z,17.73
2018-09-06T13:53:51.755Z,17.25
2018-09-06T13:56:20.001Z,19.00
2018-09-06T13:58:48.225Z,21.17
2018-09-06T14:01:16.728Z,19.48
2018-09-06T14:03:44.959Z,18.87
2018-09-06T14:06:13.431Z,21.75
2018-09-06T14:08:41.661Z,21.65
2018-09-06T14:11:09.911Z,21.62
2018-09-06T14:13:38.154Z,22.40
2018-09-06T14:16:06.655Z,21.75
2018-09-06T14:18:34.900Z,21.33
2018-09-06T14:21:03.596Z,24.32
2018-09-06T14:23:31.868Z,23.30
2018-09-06T14:26:00.091Z,22.65
2018-09-06T14:28:28.327Z,24.92
2018-09-06T14:30:56.559Z,24.07
2018-09-06T14:33:24.783Z,30.25
2018-09-06T14:35:53.242Z,25.25
2018-09-06T14:38:21.710Z,27.52
2018-09-06T14:40:49.948Z,28.23
2018-09-06T14:43:18.181Z,30.40
2018-09-06T14:45:46.411Z,31.10
2018-09-06T14:48:14.635Z,39.42
2018-09-06T14:50:42.898Z,51.58
2018-09-06T14:53:11.088Z,52.58
2018-09-06T14:55:39.316Z,46.98
2018-09-06T14:58:07.600Z,50.30
2018-09-06T15:00:35.838Z,44.13
2018-09-06T15:03:04.198Z,35.17
2018-09-06T15:05:32.419Z,29.35
2018-09-06T15:08:00.708Z,31.70
2018-09-06T15:10:28.889Z,30.00
2018-09-06T15:12:57.132Z,28.55
2018-09-06T15:15:25.359Z,26.73
2018-09-06T15:17:53.590Z,28.23
2018-09-06T15:20:21.866Z,28.20
2018-09-06T15:22:50.103Z,29.15
2018-09-06T15:25:18.330Z,27.98
2018-09-06T15:27:46.612Z,25.65
2018-09-06T15:30:14.816Z,31.82
2018-09-06T15:32:43.099Z,31.00
2018-09-06T15:35:11.480Z,30.35
2018-09-06T15:37:39.708Z,26.70
2018-09-06T15:40:07.978Z,25.77
2018-09-06T15:42:36.215Z,26.20
2018-09-06T15:45:04.603Z,28.85
2018-09-06T15:47:32.840Z,25.55
2018-09-06T15:50:01.072Z,23.02
2018-09-06T15:52:29.300Z,23.22
2018-09-06T15:54:57.546Z,21.37
2018-09-06T15:57:25.779Z,20.60
2018-09-06T15:59:54.076Z,19.05
2018-09-06T16:02:22.327Z,19.12
2018-09-06T16:04:50.547Z,19.48
2018-09-06T16:07:18.800Z,20.62
2018-09-06T16:09:47.034Z,26.17
2018-09-06T16:12:15.281Z,23.38
2018-09-06T16:14:43.502Z,17.32
2018-09-06T16:17:11.792Z,17.92
2018-09-06T16:19:40.031Z,16.77
2018-09-06T16:22:08.310Z,17.60
2018-09-06T16:24:36.540Z,16.75
2018-09-06T16:27:04.828Z,16.50
2018-09-06T16:29:33.049Z,17.90
2018-09-06T16:32:01.308Z,16.82
2018-09-06T16:34:29.548Z,16.87
2018-09-06T16:36:57.794Z,18.25
2018-09-06T16:39:26.031Z,17.30
2018-09-06T16:41:54.275Z,16.32
2018-09-06T16:44:22.508Z,20.32
2018-09-06T16:46:51.000Z,20.52
2018-09-06T16:49:19.222Z,21.17
2018-09-06T16:51:47.452Z,28.23
2018-09-06T16:54:15.681Z,28.57
2018-09-06T16:56:43.898Z,30.12
2018-09-06T16:59:12.126Z,25.50
2018-09-06T17:01:40.654Z,39.65
2018-09-06T17:04:08.934Z,33.65
2018-09-06T17:06:37.161Z,37.10
2018-09-06T17:09:07.192Z,37.83
2018-09-06T17:11:35.506Z,38.02
2018-09-06T17:14:03.759Z,35.38
2018-09-06T17:16:32.139Z,35.80
2018-09-06T17:19:00.386Z,40.28
2018-09-06T17:21:28.607Z,32.60
2018-09-06T17:23:56.822Z,34.85
2018-09-06T17:26:25.044Z,29.92
2018-09-06T17:28:53.272Z,36.88
2018-09-06T17:31:21.488Z,37.40
2018-09-06T17:33:49.794Z,35.25
2018-09-06T17:36:18.044Z,28.67
2018-09-06T17:38:46.364Z,30.77
2018-09-06T17:41:14.499Z,34.35
2018-09-06T17:43:42.731Z,33.92
2018-09-06T17:46:10.990Z,31.10
2018-09-06T17:48:39.233Z,37.25
2018-09-06T17:51:07.483Z,38.83
2018-09-06T17:53:36.312Z,36.42
2018-09-06T17:56:04.664Z,39.55
2018-09-06T17:58:33.063Z,34.23
2018-09-06T18:01:35.171Z,38.00
2018-09-06T18:04:04.112Z,33.98
2018-09-06T18:06:32.762Z,30.27
2018-09-06T18:09:01.151Z,39.23
2018-09-06T18:11:29.908Z,29.82
2018-09-06T18:13:58.459Z,38.05
2018-09-06T18:16:26.700Z,36.33
2018-09-06T18:18:55.287Z,44.73
2018-09-06T18:21:24.425Z,41.63
2018-09-06T18:23:52.664Z,38.38
2018-09-06T18:26:20.915Z,35.83
2018-09-06T18:28:49.194Z,42.85
2018-09-06T18:31:17.619Z,40.78
2018-09-06T18:33:45.871Z,41.77
2018-09-06T18:36:14.144Z,44.08
2018-09-06T18:38:42.908Z,41.68
2018-09-06T18:41:11.135Z,39.92
2018-09-06T18:43:39.656Z,40.67
2018-09-06T18:46:08.532Z,45.70
2018-09-06T18:48:37.879Z,39.42
2018-09-06T18:51:06.139Z,35.43
2018-09-06T18:53:34.691Z,36.23
2018-09-06T18:56:02.930Z,37.35
2018-09-06T18:58:31.263Z,30.20
2018-09-06T19:00:59.503Z,34.43
2018-09-06T19:03:28.402Z,33.55
2018-09-06T19:05:56.637Z,35.45
2018-09-06T19:08:24.862Z,30.08
2018-09-06T19:10:53.173Z,40.25
2018-09-06T19:13:21.390Z,37.73
2018-09-06T19:15:49.612Z,35.13
2018-09-06T19:18:17.871Z,33.28
2018-09-06T19:20:46.095Z,40.23
2018-09-06T19:23:14.343Z,36.70
2018-09-06T19:25:42.566Z,39.55
2018-09-06T19:28:10.840Z,39.25
2018-09-06T19:30:39.132Z,37.78
2018-09-06T19:33:07.354Z,35.45
2018-09-06T19:35:35.588Z,43.10
2018-09-06T19:38:03.887Z,38.67
2018-09-06T19:40:32.111Z,31.25
2018-09-06T19:43:00.325Z,35.88
2018-09-06T19:45:29.075Z,35.25
2018-09-06T19:47:57.298Z,40.50
2018-09-06T19:50:25.622Z,38.78
2018-09-06T19:52:53.846Z,39.13
2018-09-06T19:55:22.088Z,46.68
2018-09-06T19:57:50.324Z,41.53
2018-09-06T20:00:18.635Z,42.50
2018-09-06T20:02:46.879Z,47.00
2018-09-06T20:05:15.147Z,186.57
2018-09-06T20:07:43.399Z,56.45
2018-09-06T20:10:11.644Z,59.23
2018-09-06T20:12:39.873Z,63.08
2018-09-06T20:15:08.274Z,47.13
2018-09-06T20:17:36.527Z,55.98
2018-09-06T20:20:04.844Z,59.35
2018-09-06T20:22:33.079Z,56.63
2018-09-06T20:25:01.308Z,56.00
2018-09-06T20:27:29.534Z,62.48
2018-09-06T20:29:57.767Z,62.50
2018-09-06T20:32:26.011Z,61.98
2018-09-06T20:34:54.236Z,61.92
2018-09-06T20:37:22.450Z,60.50
2018-09-06T20:39:50.711Z,65.05
2018-09-06T20:42:18.958Z,49.95
2018-09-06T20:44:47.208Z,69.65
2018-09-06T20:47:15.461Z,58.00
2018-09-06T20:49:43.691Z,66.62
2018-09-06T20:52:11.910Z,54.42
2018-09-06T20:54:40.137Z,53.95
2018-09-06T20:57:08.364Z,48.70
2018-09-06T20:59:36.616Z,86.37
2018-09-06T21:02:10.176Z,58.65
2018-09-06T21:04:38.435Z,45.33
2018-09-06T21:07:06.711Z,58.17
2018-09-06T21:09:34.973Z,77.03
2018-09-06T21:12:03.236Z,80.83
2018-09-06T21:14:31.541Z,69.80
2018-09-06T21:16:59.736Z,69.22
2018-09-06T21:19:27.986Z,68.33
2018-09-06T21:21:56.579Z,87.57
2018-09-06T21:24:24.845Z,61.28
2018-09-06T21:26:53.085Z,79.77
2018-09-06T21:29:21.902Z,42.58
2018-09-06T21:31:50.122Z,47.23
2018-09-06T21:34:18.343Z,51.70
2018-09-06T21:36:46.570Z,49.93
2018-09-06T21:39:14.799Z,56.10
2018-09-06T21:41:43.499Z,51.48
2018-09-06T21:44:11.723Z,57.55
2018-09-06T21:46:40.422Z,44.25
2018-09-06T21:49:08.925Z,80.03
2018-09-06T21:51:37.423Z,49.77
2018-09-06T21:54:05.687Z,48.55
2018-09-06T21:56:33.931Z,57.80
2018-09-06T21:59:02.208Z,60.25
2018-09-06T22:01:30.443Z,64.40
2018-09-06T22:04:06.812Z,46.70
2018-09-06T22:06:35.444Z,51.53
2018-09-06T22:09:04.886Z,44.13
2018-09-06T22:11:33.135Z,47.55
2018-09-06T22:14:01.365Z,38.55
2018-09-06T22:16:29.583Z,35.78
2018-09-06T22:18:57.807Z,62.55
2018-09-06T22:21:26.051Z,65.17
2018-09-06T22:23:54.274Z,49.95
2018-09-06T22:26:22.552Z,38.73
2018-09-06T22:28:51.451Z,47.15
2018-09-06T22:31:19.712Z,42.67
2018-09-06T22:33:47.953Z,40.92
2018-09-06T22:36:16.188Z,47.98
2018-09-06T22:38:44.411Z,44.60
2018-09-06T22:41:12.667Z,62.27
2018-09-06T22:43:40.883Z,59.23
2018-09-06T22:46:09.156Z,64.62
2018-09-06T22:48:37.379Z,70.85
2018-09-06T22:51:06.066Z,78.17
2018-09-06T22:53:34.764Z,58.50
2018-09-06T22:56:03.611Z,86.67
2018-09-06T22:58:31.843Z,89.30
2018-09-06T23:01:00.075Z,85.57
2018-09-06T23:03:33.654Z,82.12
2018-09-06T23:06:01.866Z,85.87
2018-09-06T23:08:30.086Z,85.25
2018-09-06T23:10:58.318Z,66.70
2018-09-06T23:13:26.544Z,57.80
2018-09-06T23:15:54.793Z,63.50
2018-09-06T23:18:23.015Z,45.27
2018-09-06T23:20:51.245Z,50.43
2018-09-06T23:23:19.466Z,58.30
2018-09-06T23:25:47.705Z,53.65
2018-09-06T23:28:15.924Z,49.93
2018-09-06T23:30:44.178Z,64.45
2018-09-06T23:33:12.413Z,53.07
2018-09-06T23:35:44.193Z,49.83
2018-09-06T23:38:13.336Z,40.25
2018-09-06T23:40:45.811Z,50.10
2018-09-06T23:43:14.032Z,46.23
2018-09-06T23:45:42.283Z,46.98
2018-09-06T23:48:10.538Z,46.35
2018-09-06T23:50:38.767Z,39.33
2018-09-06T23:53:07.150Z,43.05
2018-09-06T23:55:35.392Z,38.98
2018-09-06T23:58:04.341Z,46.50
